Sds Green — ICOK — position and weather

sailwx.info

Track history (hours):
 
Tides and Currents Weather Stations Pressure Air Temp Water Temp Dewpoint Dewpoint Depression Visibility Wind Speed Wind Dir Waves Ship Positions

Sds Green

Last reported at 2014-Sep-18 11:32 UTC. Time now 2014-Sep-22 06:19 UTC.
Position N 37°30' E 008°02'.

Length 108 m; draft 7.1 m.

Type: Cargo ship. MMSI: 247292200.

Date/timePositionNaut miles runAvg speedWind from/ knotsBaromVisibWave heightAir tempDewpointWater temp
2014-Sep-18 11:32N 37°30' E 008°02'1010.6
2014-Sep-18 10:33N 37°32' E 008°15'1210.7
2014-Sep-18 09:29N 37°33' E 008°30'1010.5
2014-Sep-18 08:32N 37°35' E 008°42'1010.6
2014-Sep-18 07:33N 37°36' E 008°55'3110.2
2014-Sep-18 04:29N 37°41' E 009°34'1010.2
2014-Sep-18 03:32N 37°43' E 009°46'1010.1
2014-Sep-18 02:30N 37°44' E 009°59'1410.2
2014-Sep-18 01:07N 37°43' E 010°17'610.0
2014-Sep-18 00:33N 37°42' E 010°24'1010.3
2014-Sep-17 23:33N 37°41' E 010°37'1110.8
2014-Sep-17 22:33N 37°40' E 010°50'14611.2
2014-Sep-17 09:33N 37°00' E 013°47'1212.1
2014-Sep-17 08:33N 36°55' E 014°00'1211.9
2014-Sep-17 07:32N 36°50' E 014°14'1211.8
2014-Sep-17 06:33N 36°44' E 014°26'46110.2
2014-Sep-15 09:11N 37°30' E 024°02'2411.6
2014-Sep-15 07:06N 37°48' E 024°22'1011.3
2014-Sep-15 06:13N 37°54' E 024°32'4412.0
2014-Sep-15 02:33N 38°34' E 024°56'2611.9
2014-Sep-15 00:22N 38°57' E 025°12'  
2014-Sep-11 05:33N 39°53' E 026°09'1 1.1
2014-Sep-11 04:17N 39°54' E 026°08'0 0.0
2014-Sep-11 03:04N 39°54' E 026°08'0 0.0
2014-Sep-11 01:22N 39°54' E 026°08'0 0.0
2014-Sep-11 00:13N 39°54' E 026°08'0 0.0
2014-Sep-10 04:04N 39°54' E 026°08'0 0.0
2014-Sep-10 01:28N 39°54' E 026°08'5 2.5
2014-Sep-09 23:18N 39°59' E 026°08'  
Track history (hours):
 
Tides and Currents Weather Stations Pressure Air Temp Water Temp Dewpoint Dewpoint Depression Visibility Wind Speed Wind Dir Waves Ship Positions

Sds Green

Last reported at 2014-Sep-18 11:32 UTC. Time now 2014-Sep-22 06:19 UTC.
Position N 37°30' E 008°02'.

Length 108 m; draft 7.1 m.

Type: Cargo ship. MMSI: 247292200.

Date/timePositionNaut miles runAvg speedWind from/ knotsBaromVisibWave heightAir tempDewpointWater temp
2014-Sep-18 11:32N 37°30' E 008°02'1010.6
2014-Sep-18 10:33N 37°32' E 008°15'1210.7
2014-Sep-18 09:29N 37°33' E 008°30'1010.5
2014-Sep-18 08:32N 37°35' E 008°42'1010.6
2014-Sep-18 07:33N 37°36' E 008°55'3110.2
2014-Sep-18 04:29N 37°41' E 009°34'1010.2
2014-Sep-18 03:32N 37°43' E 009°46'1010.1
2014-Sep-18 02:30N 37°44' E 009°59'1410.2
2014-Sep-18 01:07N 37°43' E 010°17'610.0
2014-Sep-18 00:33N 37°42' E 010°24'1010.3
2014-Sep-17 23:33N 37°41' E 010°37'1110.8
2014-Sep-17 22:33N 37°40' E 010°50'14611.2
2014-Sep-17 09:33N 37°00' E 013°47'1212.1
2014-Sep-17 08:33N 36°55' E 014°00'1211.9
2014-Sep-17 07:32N 36°50' E 014°14'1211.8
2014-Sep-17 06:33N 36°44' E 014°26'46110.2
2014-Sep-15 09:11N 37°30' E 024°02'2411.6
2014-Sep-15 07:06N 37°48' E 024°22'1011.3
2014-Sep-15 06:13N 37°54' E 024°32'4412.0
2014-Sep-15 02:33N 38°34' E 024°56'2611.9
2014-Sep-15 00:22N 38°57' E 025°12'  
2014-Sep-11 05:33N 39°53' E 026°09'1 1.1
2014-Sep-11 04:17N 39°54' E 026°08'0 0.0
2014-Sep-11 03:04N 39°54' E 026°08'0 0.0
2014-Sep-11 01:22N 39°54' E 026°08'0 0.0
2014-Sep-11 00:13N 39°54' E 026°08'0 0.0
2014-Sep-10 04:04N 39°54' E 026°08'0 0.0
2014-Sep-10 01:28N 39°54' E 026°08'5 2.5
2014-Sep-09 23:18N 39°59' E 026°08'  

Dump ship's entire track history